Time;durP1;ratioP1;P1;durP2;ratioP2;P2;SDS_P1;SDS_P2;PMS_P1;PMS_P2;Temp;Humidity;BMP_temperature;BMP_pressure;BME280_temperature;BME280_humidity;BME280_pressure;Samples;Min_cycle;Max_cycle;Signal;HPM_P1;HPM_P2
2021/05/22 00:00:46;;;;;;;;;;;;;;;20.71;53.86;99959.06;2104763;28;3889;-28
2021/05/22 00:01:47;;;;;;;;;;;;;;;20.71;53.80;99953.41;2104238;28;3883;-28
2021/05/22 00:02:48;;;;;;;;;;;;;;;20.72;53.79;99955.03;2104836;28;4336;-27
2021/05/22 00:03:51;;;;;;;;;;;;;;;20.71;53.87;99944.06;2105289;28;4114;-27
2021/05/22 00:04:52;;;;;;;;;;;;;;;20.71;53.82;99942.03;2104386;28;4216;-36
2021/05/22 00:05:53;;;;;;;;;;;;;;;20.72;53.87;99942.84;2104333;28;3912;-31
2021/05/22 00:06:55;;;;;;;;;;;;;;;20.72;53.97;99940.81;2105422;28;4018;-27
2021/05/22 00:07:56;;;;;;;;;;;;;;;20.72;53.88;99928.63;2104858;28;4196;-26
2021/05/22 00:08:57;;;;;;;;;;;;;;;20.72;53.86;99932.28;2104469;28;3878;-34
2021/05/22 00:09:58;;;;;;;;;;;;;;;20.72;53.86;99928.63;2105033;28;3892;-28
2021/05/22 00:10:59;;;;;;;;;;;;;;;20.71;53.70;99924.97;2105566;28;4142;-30
2021/05/22 00:12:01;;;;;;;;;;;;;;;20.72;53.71;99925.78;2103873;28;3877;-30
2021/05/22 00:13:02;;;;;;;;;;;;;;;20.71;53.72;99922.13;2103216;28;4005;-28
2021/05/22 00:14:03;;;;;;;;;;;;;;;20.70;53.79;99923.31;2103847;28;3811;-32
2021/05/22 00:15:06;;;;;;;;;;;;;;;20.66;53.44;99933.78;2096767;28;4034;-28
2021/05/22 00:16:07;;;;;;;;;;;;;;;20.65;53.53;99935.00;2096560;28;4003;-29
2021/05/22 00:17:08;;;;;;;;;;;;;;;20.65;53.54;99929.31;2104103;28;4011;-27
2021/05/22 00:18:10;;;;;;;;;;;;;;;20.66;53.61;99925.25;2104531;28;3983;-32
2021/05/22 00:19:20;;;;;;;;;;;;;;;20.66;53.42;99923.25;2104874;28;4047;-29
2021/05/22 00:20:21;;;;;;;;;;;;;;;20.66;53.29;99920.41;2104372;28;3994;-28
2021/05/22 00:21:23;;;;;;;;;;;;;;;20.67;53.48;99921.22;2104645;28;4037;-31
2021/05/22 00:22:24;;;;;;;;;;;;;;;20.66;53.37;99911.06;2104922;28;4421;-29
2021/05/22 00:23:26;;;;;;;;;;;;;;;20.68;53.38;99911.50;2104993;28;5293;-30
2021/05/22 00:24:27;;;;;;;;;;;;;;;20.68;53.46;99915.16;2104823;28;4074;-30
2021/05/22 00:25:28;;;;;;;;;;;;;;;20.69;53.37;99915.97;2104834;28;4133;-29
2021/05/22 00:26:29;;;;;;;;;;;;;;;20.70;53.33;99914.78;2104784;28;3902;-30
2021/05/22 00:27:31;;;;;;;;;;;;;;;20.71;53.17;99907.09;2104963;28;4067;-32
2021/05/22 00:28:32;;;;;;;;;;;;;;;20.69;53.22;99908.28;2105142;28;4038;-27
2021/05/22 00:29:33;;;;;;;;;;;;;;;20.69;53.19;99904.63;2104730;28;4094;-28
2021/05/22 00:30:34;;;;;;;;;;;;;;;20.69;53.24;99898.94;2104436;28;4107;-28
2021/05/22 00:31:36;;;;;;;;;;;;;;;20.68;53.14;99898.13;2105020;28;4080;-30
2021/05/22 00:32:37;;;;;;;;;;;;;;;20.68;53.28;99897.31;2105223;28;3874;-28
2021/05/22 00:33:38;;;;;;;;;;;;;;;20.67;53.18;99887.09;2104516;28;3890;-28
2021/05/22 00:34:40;;;;;;;;;;;;;;;20.68;53.41;99894.47;2104992;28;3876;-29
2021/05/22 00:35:43;;;;;;;;;;;;;;;20.68;53.18;99897.31;2104007;28;3865;-29
2021/05/22 00:36:44;;;;;;;;;;;;;;;20.67;53.30;99898.47;2105593;28;3881;-28
2021/05/22 00:37:45;;;;;;;;;;;;;;;20.68;53.25;99891.63;2105270;28;4047;-27
2021/05/22 00:38:47;;;;;;;;;;;;;;;20.67;53.18;99890.78;2104212;28;4133;-35
2021/05/22 00:39:48;;;;;;;;;;;;;;;20.67;53.12;99892.78;2105510;28;4121;-29
2021/05/22 00:40:49;;;;;;;;;;;;;;;20.67;53.24;99898.47;2104761;28;4069;-28
2021/05/22 00:41:50;;;;;;;;;;;;;;;20.68;53.13;99891.63;2104687;28;4254;-28
2021/05/22 00:42:52;;;;;;;;;;;;;;;20.67;53.21;99890.78;2103397;28;3965;-31
2021/05/22 00:43:53;;;;;;;;;;;;;;;20.67;53.24;99890.78;2103586;28;3895;-31
2021/05/22 00:44:54;;;;;;;;;;;;;;;20.68;53.19;99891.63;2104873;28;4004;-26
2021/05/22 00:45:55;;;;;;;;;;;;;;;20.69;53.27;99891.22;2104157;28;3888;-36
2021/05/22 00:46:57;;;;;;;;;;;;;;;20.69;53.10;99896.09;2104697;28;3880;-28
2021/05/22 00:47:58;;;;;;;;;;;;;;;20.69;53.18;99890.41;2105095;28;3904;-29
2021/05/22 00:48:59;;;;;;;;;;;;;;;20.70;53.10;99889.19;2104314;28;4059;-28
2021/05/22 00:50:00;;;;;;;;;;;;;;;20.69;52.96;99887.56;2105376;28;4045;-28
2021/05/22 00:51:02;;;;;;;;;;;;;;;20.69;53.15;99888.38;2104398;28;3869;-29
2021/05/22 00:52:04;;;;;;;;;;;;;;;20.69;53.09;99876.19;2104672;28;4052;-27
2021/05/22 00:53:06;;;;;;;;;;;;;;;20.69;53.07;99887.56;2104602;28;4018;-28
2021/05/22 00:54:07;;;;;;;;;;;;;;;20.68;53.17;99885.94;2104465;28;4051;-29
2021/05/22 00:55:08;;;;;;;;;;;;;;;20.68;52.95;99886.75;2105785;28;4058;-28
2021/05/22 00:56:10;;;;;;;;;;;;;;;20.69;53.00;99888.38;2103373;28;3948;-29
2021/05/22 00:57:11;;;;;;;;;;;;;;;20.68;52.99;99883.91;2104869;28;3856;-28
2021/05/22 00:58:12;;;;;;;;;;;;;;;20.68;53.07;99885.94;2103722;28;4199;-30
2021/05/22 00:59:13;;;;;;;;;;;;;;;20.68;52.95;99877.41;2105006;28;3852;-30
2021/05/22 01:00:14;;;;;;;;;;;;;;;20.68;53.15;99886.75;2104522;28;4066;-28
2021/05/22 01:01:16;;;;;;;;;;;;;;;20.68;53.07;99874.56;2104206;28;4019;-30
2021/05/22 01:02:17;;;;;;;;;;;;;;;20.69;52.89;99890.41;2104773;28;3991;-28
2021/05/22 01:03:18;;;;;;;;;;;;;;;20.69;53.06;99896.09;2103813;28;4082;-34
2021/05/22 01:04:20;;;;;;;;;;;;;;;20.68;52.98;99894.47;2104436;28;4040;-29
2021/05/22 01:05:21;;;;;;;;;;;;;;;20.68;53.04;99898.13;2105402;28;4011;-28
2021/05/22 01:06:22;;;;;;;;;;;;;;;20.67;53.01;99884.25;2104798;28;4028;-31
2021/05/22 01:07:23;;;;;;;;;;;;;;;20.68;53.11;99874.56;2104557;28;4145;-29
2021/05/22 01:08:24;;;;;;;;;;;;;;;20.68;52.96;99885.94;2104471;28;3773;-31
2021/05/22 01:09:26;;;;;;;;;;;;;;;20.69;52.94;99876.19;2104424;28;4070;-34
2021/05/22 01:10:27;;;;;;;;;;;;;;;20.66;52.93;99889.13;2104866;28;4058;-30
2021/05/22 01:11:28;;;;;;;;;;;;;;;20.67;52.87;99887.94;2103913;28;3845;-28
2021/05/22 01:12:30;;;;;;;;;;;;;;;20.68;52.95;99883.91;2105411;28;4039;-34
2021/05/22 01:13:32;;;;;;;;;;;;;;;20.68;52.92;99891.63;2103994;28;3880;-30
2021/05/22 01:14:33;;;;;;;;;;;;;;;20.68;52.91;99886.75;2105139;28;4023;-32
2021/05/22 01:15:34;;;;;;;;;;;;;;;20.68;53.03;99888.78;2104818;28;3876;-29
2021/05/22 01:16:36;;;;;;;;;;;;;;;20.68;53.01;99877.41;2104922;28;4057;-32
2021/05/22 01:17:37;;;;;;;;;;;;;;;20.67;52.99;99879.41;2104473;28;4031;-30
2021/05/22 01:18:38;;;;;;;;;;;;;;;20.67;52.82;99870.06;2104017;28;4080;-31
2021/05/22 01:19:39;;;;;;;;;;;;;;;20.67;52.96;99867.22;2105118;28;4133;-30
2021/05/22 01:20:40;;;;;;;;;;;;;;;20.66;52.82;99866.41;2104331;28;4103;-29
2021/05/22 01:21:42;;;;;;;;;;;;;;;20.67;52.93;99861.53;2104635;28;4043;-29
2021/05/22 01:22:48;;;;;;;;;;;;;;;20.66;53.01;99863.56;2105617;28;3877;-32
2021/05/22 01:23:50;;;;;;;;;;;;;;;20.67;52.99;99864.38;2104354;28;3844;-28
2021/05/22 01:24:51;;;;;;;;;;;;;;;20.67;52.88;99868.03;2105617;28;4059;-28
2021/05/22 01:25:52;;;;;;;;;;;;;;;20.67;53.03;99867.22;2106909;28;4037;-28
2021/05/22 01:26:53;;;;;;;;;;;;;;;20.67;53.01;99875.75;2102852;28;4095;-33
2021/05/22 01:27:54;;;;;;;;;;;;;;;20.67;52.79;99868.03;2105063;28;4126;-28
2021/05/22 01:28:57;;;;;;;;;;;;;;;20.66;52.84;99872.09;2103517;28;4084;-28
2021/05/22 01:29:59;;;;;;;;;;;;;;;20.66;52.96;99866.41;2103467;28;4015;-29
2021/05/22 01:31:00;;;;;;;;;;;;;;;20.67;52.96;99867.22;2104688;28;4172;-28
2021/05/22 01:32:01;;;;;;;;;;;;;;;20.67;52.84;99867.22;2106247;28;3859;-27
2021/05/22 01:33:02;;;;;;;;;;;;;;;20.66;52.97;99868.41;2106273;28;4029;-36
2021/05/22 01:34:04;;;;;;;;;;;;;;;20.66;53.03;99866.41;2106037;28;3879;-30
2021/05/22 01:35:05;;;;;;;;;;;;;;;20.66;52.97;99872.09;2106080;28;4030;-31
2021/05/22 01:36:06;;;;;;;;;;;;;;;20.66;53.01;99871.25;2105703;28;3997;-28
2021/05/22 01:37:07;;;;;;;;;;;;;;;20.66;52.83;99871.25;2106989;28;4059;-30
2021/05/22 01:38:08;;;;;;;;;;;;;;;20.66;52.84;99866.41;2105749;28;3948;-28
2021/05/22 01:39:10;;;;;;;;;;;;;;;20.66;52.91;99868.41;2105121;28;4036;-37
2021/05/22 01:40:11;;;;;;;;;;;;;;;20.65;52.84;99864.75;2106991;28;4191;-29
2021/05/22 01:41:12;;;;;;;;;;;;;;;20.65;52.81;99867.59;2105919;28;4044;-29
2021/05/22 01:42:14;;;;;;;;;;;;;;;20.66;52.73;99871.25;2105696;28;3874;-27
2021/05/22 01:43:15;;;;;;;;;;;;;;;20.65;52.82;99870.44;2106295;28;3970;-34
2021/05/22 01:44:16;;;;;;;;;;;;;;;20.66;52.93;99879.78;2105408;28;3983;-30
2021/05/22 01:45:18;;;;;;;;;;;;;;;20.65;52.97;99872.47;2106443;28;4232;-28
2021/05/22 01:46:19;;;;;;;;;;;;;;;20.64;52.86;99871.63;2105423;28;3837;-36
2021/05/22 01:47:20;;;;;;;;;;;;;;;20.64;52.76;99871.63;2105859;28;4169;-28
2021/05/22 01:48:21;;;;;;;;;;;;;;;20.64;52.93;99873.66;2106823;28;4105;-30
2021/05/22 01:49:26;;;;;;;;;;;;;;;20.65;52.75;99872.47;2105418;28;4108;-29
2021/05/22 01:50:27;;;;;;;;;;;;;;;20.64;52.70;99868.78;2105165;28;4795;-31
2021/05/22 01:51:28;;;;;;;;;;;;;;;20.64;52.91;99868.78;2106574;28;3868;-28
2021/05/22 01:52:29;;;;;;;;;;;;;;;20.64;52.87;99871.63;2105815;28;4082;-34
2021/05/22 01:53:31;;;;;;;;;;;;;;;20.63;52.90;99875.69;2106322;28;4059;-30
2021/05/22 01:54:32;;;;;;;;;;;;;;;20.63;52.74;99872.84;2104917;28;4244;-30
2021/05/22 01:55:34;;;;;;;;;;;;;;;20.64;52.75;99880.16;2105597;28;4085;-29
2021/05/22 01:56:35;;;;;;;;;;;;;;;20.63;52.92;99872.00;2106164;28;4048;-32
2021/05/22 01:57:36;;;;;;;;;;;;;;;20.63;52.72;99872.00;2106118;28;3915;-29
2021/05/22 01:58:37;;;;;;;;;;;;;;;20.63;52.83;99869.19;2106083;28;4041;-27
2021/05/22 01:59:39;;;;;;;;;;;;;;;20.63;52.80;99870.00;2104515;28;4081;-31
2021/05/22 02:00:40;;;;;;;;;;;;;;;20.63;52.83;99869.19;2105620;28;4049;-28
2021/05/22 02:01:42;;;;;;;;;;;;;;;20.63;52.93;99869.19;2105273;28;3880;-27
2021/05/22 02:02:43;;;;;;;;;;;;;;;20.63;52.72;99877.69;2105485;28;3871;-33
2021/05/22 02:03:46;;;;;;;;;;;;;;;20.63;52.89;99870.00;2106536;28;4056;-27
2021/05/22 02:04:47;;;;;;;;;;;;;;;20.63;52.76;99874.84;2105339;28;4040;-30
2021/05/22 02:05:49;;;;;;;;;;;;;;;20.64;52.78;99862.28;2106360;28;4039;-31
2021/05/22 02:06:50;;;;;;;;;;;;;;;20.63;52.93;99863.50;2105409;28;4045;-27
2021/05/22 02:07:51;;;;;;;;;;;;;;;20.62;52.81;99868.34;2106806;28;4072;-29
2021/05/22 02:08:53;;;;;;;;;;;;;;;20.62;52.82;99876.03;2106010;28;3934;-30
2021/05/22 02:09:54;;;;;;;;;;;;;;;20.62;52.75;99861.81;2096287;28;3900;-27
2021/05/22 02:10:55;;;;;;;;;;;;;;;20.63;52.82;99863.50;2096837;28;3932;-30
2021/05/22 02:11:56;;;;;;;;;;;;;;;20.62;52.84;99858.97;2105419;28;4048;-30
2021/05/22 02:12:57;;;;;;;;;;;;;;;20.62;52.77;99858.97;2104910;28;4028;-29
2021/05/22 02:13:59;;;;;;;;;;;;;;;20.61;52.71;99861.00;2105569;28;4054;-28
2021/05/22 02:15:00;;;;;;;;;;;;;;;20.62;52.89;99858.97;2105237;28;3871;-26
2021/05/22 02:16:01;;;;;;;;;;;;;;;20.61;52.91;99857.34;2105627;28;4079;-35
2021/05/22 02:17:02;;;;;;;;;;;;;;;20.61;52.82;99851.66;2105369;28;3885;-26
2021/05/22 02:18:04;;;;;;;;;;;;;;;20.60;52.93;99847.19;2105641;28;3893;-26
2021/05/22 02:19:05;;;;;;;;;;;;;;;20.61;52.85;99854.50;2105734;28;4025;-26
2021/05/22 02:20:06;;;;;;;;;;;;;;;20.62;52.80;99853.31;2105115;28;4084;-26
2021/05/22 02:21:07;;;;;;;;;;;;;;;20.61;52.82;99857.34;2105621;28;4001;-31
2021/05/22 02:22:09;;;;;;;;;;;;;;;20.62;52.69;99858.97;2105650;28;3858;-28
2021/05/22 02:23:10;;;;;;;;;;;;;;;20.61;52.99;99863.03;2106464;28;3939;-25
2021/05/22 02:24:11;;;;;;;;;;;;;;;20.61;52.93;99863.03;2105314;28;3824;-26
2021/05/22 02:25:12;;;;;;;;;;;;;;;20.60;52.78;99870.75;2106252;28;3867;-27
2021/05/22 02:26:14;;;;;;;;;;;;;;;20.61;52.77;99875.22;2105202;28;4151;-28
2021/05/22 02:27:15;;;;;;;;;;;;;;;20.61;52.86;99874.41;2104365;28;4053;-26
2021/05/22 02:28:16;;;;;;;;;;;;;;;20.60;52.95;99873.59;2105073;28;4241;-26
2021/05/22 02:29:17;;;;;;;;;;;;;;;20.62;52.92;99873.19;2106027;28;3959;-26
2021/05/22 02:30:18;;;;;;;;;;;;;;;20.61;52.95;99872.38;2105382;28;4080;-26
2021/05/22 02:31:20;;;;;;;;;;;;;;;20.61;52.92;99877.25;2106481;28;3990;-26
2021/05/22 02:32:21;;;;;;;;;;;;;;;20.61;52.95;99880.09;2105172;28;4141;-30
2021/05/22 02:33:22;;;;;;;;;;;;;;;20.61;53.03;99874.41;2106426;28;4040;-26
2021/05/22 02:34:24;;;;;;;;;;;;;;;20.60;52.78;99876.44;2105594;28;3791;-27
2021/05/22 02:35:25;;;;;;;;;;;;;;;20.61;52.96;99880.09;2103927;28;3904;-28
2021/05/22 02:36:26;;;;;;;;;;;;;;;20.59;53.00;99877.63;2104739;28;4639;-27
2021/05/22 02:37:27;;;;;;;;;;;;;;;20.60;53.00;99882.09;2103992;28;4146;-27
2021/05/22 02:38:29;;;;;;;;;;;;;;;20.61;52.94;99888.59;2105860;28;4030;-26
2021/05/22 02:39:30;;;;;;;;;;;;;;;20.60;53.04;99890.63;2104106;28;4073;-27
2021/05/22 02:40:31;;;;;;;;;;;;;;;20.61;53.00;99885.78;2104786;28;4065;-26
2021/05/22 02:41:32;;;;;;;;;;;;;;;20.59;52.95;99882.47;2106675;28;4099;-26
2021/05/22 02:42:33;;;;;;;;;;;;;;;20.60;53.13;99884.94;2104626;28;4011;-27
2021/05/22 02:43:35;;;;;;;;;;;;;;;20.59;53.03;99885.31;2106219;28;4045;-26
2021/05/22 02:44:36;;;;;;;;;;;;;;;20.59;52.97;99883.31;2104976;28;3853;-25
2021/05/22 02:45:37;;;;;;;;;;;;;;;20.60;53.13;99884.13;2104908;28;4207;-26
2021/05/22 02:46:38;;;;;;;;;;;;;;;20.60;52.97;99886.97;2106021;28;3983;-26
2021/05/22 02:47:39;;;;;;;;;;;;;;;20.61;53.04;99885.78;2105707;28;4048;-27
2021/05/22 02:48:41;;;;;;;;;;;;;;;20.60;53.29;99879.28;2105893;28;4045;-26
2021/05/22 02:49:42;;;;;;;;;;;;;;;20.60;53.31;99884.13;2105307;28;3897;-26
2021/05/22 02:50:43;;;;;;;;;;;;;;;20.60;53.58;99884.13;2103663;28;4254;-25
2021/05/22 02:51:44;;;;;;;;;;;;;;;20.59;53.53;99877.63;2106456;28;4042;-26
2021/05/22 02:52:50;;;;;;;;;;;;;;;20.59;53.76;99883.31;2105835;28;3938;-26
2021/05/22 02:53:51;;;;;;;;;;;;;;;20.59;53.75;99879.63;2106000;28;3858;-25
2021/05/22 02:54:52;;;;;;;;;;;;;;;20.59;53.86;99879.63;2104613;28;4055;-29
2021/05/22 02:55:54;;;;;;;;;;;;;;;20.59;53.91;99885.31;2104993;28;4142;-26
2021/05/22 02:56:55;;;;;;;;;;;;;;;20.59;53.88;99879.63;2105177;28;3935;-27
2021/05/22 02:57:56;;;;;;;;;;;;;;;20.59;53.90;99888.16;2104624;28;3781;-26
2021/05/22 02:58:57;;;;;;;;;;;;;;;20.59;53.83;99879.63;2106453;28;3857;-28
2021/05/22 02:59:59;;;;;;;;;;;;;;;20.58;53.98;99881.66;2104741;28;3931;-26
2021/05/22 03:01:00;;;;;;;;;;;;;;;20.58;54.10;99890.19;2104899;28;4040;-31
2021/05/22 03:02:01;;;;;;;;;;;;;;;20.58;54.02;99887.34;2105413;28;4016;-26
2021/05/22 03:03:03;;;;;;;;;;;;;;;20.58;53.97;99880.84;2104683;28;4881;-26
2021/05/22 03:04:04;;;;;;;;;;;;;;;20.58;54.10;99881.66;2105069;28;3900;-27
2021/05/22 03:05:05;;;;;;;;;;;;;;;20.58;54.11;99878.81;2105005;28;4122;-32
2021/05/22 03:06:07;;;;;;;;;;;;;;;20.59;54.01;99877.63;2105793;28;3825;-30
2021/05/22 03:07:08;;;;;;;;;;;;;;;20.58;54.14;99884.50;2105387;28;4048;-29
2021/05/22 03:08:09;;;;;;;;;;;;;;;20.59;54.02;99879.63;2105797;28;4033;-25
2021/05/22 03:09:10;;;;;;;;;;;;;;;20.59;54.10;99873.94;2104611;28;4157;-27
2021/05/22 03:10:12;;;;;;;;;;;;;;;20.59;54.13;99877.63;2105873;28;3853;-25
2021/05/22 03:11:13;;;;;;;;;;;;;;;20.60;54.10;99875.59;2104946;28;4023;-33
2021/05/22 03:12:14;;;;;;;;;;;;;;;20.60;53.85;99864.25;2098623;28;4054;-25
2021/05/22 03:13:15;;;;;;;;;;;;;;;20.59;54.00;99868.25;2104005;28;3785;-26
2021/05/22 03:14:16;;;;;;;;;;;;;;;20.59;54.12;99869.09;2105419;28;4099;-29
2021/05/22 03:15:18;;;;;;;;;;;;;;;20.59;53.92;99865.41;2104599;28;4017;-27
2021/05/22 03:16:19;;;;;;;;;;;;;;;20.59;54.15;99871.94;2105906;28;3971;-26
2021/05/22 03:17:20;;;;;;;;;;;;;;;20.58;54.11;99870.28;2105062;28;4143;-27
2021/05/22 03:18:21;;;;;;;;;;;;;;;20.58;54.11;99870.28;2105952;28;3714;-27
2021/05/22 03:19:23;;;;;;;;;;;;;;;20.58;54.22;99873.13;2104955;28;3959;-27
2021/05/22 03:20:24;;;;;;;;;;;;;;;20.59;54.23;99871.94;2097345;28;3810;-26
2021/05/22 03:21:26;;;;;;;;;;;;;;;20.59;54.12;99868.25;2104727;28;4010;-38
2021/05/22 03:22:27;;;;;;;;;;;;;;;20.59;54.17;99868.25;2105299;28;3861;-27
2021/05/22 03:23:29;;;;;;;;;;;;;;;20.59;54.19;99871.94;2105396;28;4056;-26
2021/05/22 03:24:30;;;;;;;;;;;;;;;20.58;54.05;99861.75;2105582;28;3871;-27
2021/05/22 03:25:31;;;;;;;;;;;;;;;20.59;54.14;99868.25;2105628;28;4068;-26
2021/05/22 03:26:32;;;;;;;;;;;;;;;20.60;54.14;99875.59;2104478;28;4014;-28
2021/05/22 03:27:34;;;;;;;;;;;;;;;20.60;54.18;99872.78;2105544;28;4111;-26
2021/05/22 03:28:35;;;;;;;;;;;;;;;20.60;54.10;99875.59;2104111;28;4076;-26
2021/05/22 03:29:36;;;;;;;;;;;;;;;20.59;54.07;99883.31;2105174;28;4034;-27
2021/05/22 03:30:37;;;;;;;;;;;;;;;20.60;54.05;99884.13;2105840;28;4026;-29
2021/05/22 03:31:39;;;;;;;;;;;;;;;20.58;54.19;99884.50;2103460;28;4174;-35
2021/05/22 03:32:40;;;;;;;;;;;;;;;20.59;54.16;99879.63;2104129;28;4010;-25
2021/05/22 03:33:41;;;;;;;;;;;;;;;20.59;54.13;99882.47;2105349;28;4222;-26
2021/05/22 03:34:42;;;;;;;;;;;;;;;20.59;54.15;99882.47;2104954;28;4051;-30
2021/05/22 03:35:44;;;;;;;;;;;;;;;20.59;54.34;99883.31;2105136;28;4014;-26
2021/05/22 03:36:45;;;;;;;;;;;;;;;20.59;54.13;99877.63;2103028;28;4042;-29
2021/05/22 03:37:46;;;;;;;;;;;;;;;20.58;54.23;99881.66;2105631;28;4029;-25
2021/05/22 03:38:48;;;;;;;;;;;;;;;20.58;54.10;99875.97;2104081;28;4260;-26
2021/05/22 03:39:49;;;;;;;;;;;;;;;20.59;53.98;99882.47;2105143;28;4196;-28
2021/05/22 03:40:50;;;;;;;;;;;;;;;20.59;54.10;99888.16;2104231;28;4061;-27
2021/05/22 03:41:51;;;;;;;;;;;;;;;20.59;53.93;99888.16;2104831;28;3966;-28
2021/05/22 03:42:53;;;;;;;;;;;;;;;20.60;54.07;99892.66;2105096;28;4117;-32
2021/05/22 03:43:54;;;;;;;;;;;;;;;20.59;54.15;99888.16;2104587;28;4037;-28
2021/05/22 03:44:55;;;;;;;;;;;;;;;20.59;54.15;99888.16;2104761;28;3865;-26
2021/05/22 03:45:56;;;;;;;;;;;;;;;20.60;54.11;99889.81;2101941;28;4004;-28
2021/05/22 03:46:57;;;;;;;;;;;;;;;20.60;54.02;99889.81;2100028;28;3995;-29
2021/05/22 03:47:59;;;;;;;;;;;;;;;20.59;54.07;99891.84;2105001;28;3868;-27
2021/05/22 03:49:00;;;;;;;;;;;;;;;20.60;54.02;99889.81;2103918;28;3793;-26
2021/05/22 03:50:01;;;;;;;;;;;;;;;20.59;54.10;99891.00;2105617;28;3975;-28
2021/05/22 03:51:02;;;;;;;;;;;;;;;20.59;54.01;99893.84;2104497;28;4134;-26
2021/05/22 03:52:04;;;;;;;;;;;;;;;20.59;54.10;99899.53;2105419;28;3982;-28
2021/05/22 03:53:07;;;;;;;;;;;;;;;20.58;54.01;99898.69;2104928;28;4110;-26
2021/05/22 03:54:09;;;;;;;;;;;;;;;20.59;54.00;99900.38;2105195;28;3908;-28
2021/05/22 03:55:10;;;;;;;;;;;;;;;20.58;54.03;99898.69;2105574;28;4263;-30
2021/05/22 03:56:11;;;;;;;;;;;;;;;20.58;54.11;99895.84;2103678;28;3920;-32
2021/05/22 03:57:12;;;;;;;;;;;;;;;20.58;54.11;99898.69;2105100;28;3907;-26
2021/05/22 03:58:14;;;;;;;;;;;;;;;20.59;53.90;99896.69;2104228;28;4053;-27
2021/05/22 03:59:15;;;;;;;;;;;;;;;20.58;54.02;99895.84;2105259;28;3987;-27
2021/05/22 04:00:16;;;;;;;;;;;;;;;20.58;53.97;99892.19;2104585;28;4000;-28
2021/05/22 04:01:17;;;;;;;;;;;;;;;;;;2104926;28;3882;-25
2021/05/22 04:02:18;;;;;;;;;;;;;;;20.58;53.96;99903.56;2104153;28;4060;-27
2021/05/22 04:03:20;;;;;;;;;;;;;;;20.58;53.95;99901.53;2105267;28;3825;-27
2021/05/22 04:04:21;;;;;;;;;;;;;;;;;;2105095;28;3995;-26
2021/05/22 04:05:22;;;;;;;;;;;;;;;20.57;53.86;99899.09;2104404;28;3821;-32
2021/05/22 04:06:23;;;;;;;;;;;;;;;20.58;54.05;99895.84;2103005;28;3960;-32
2021/05/22 04:07:24;;;;;;;;;;;;;;;20.57;53.91;99899.09;2104973;28;3975;-26
2021/05/22 04:08:26;;;;;;;;;;;;;;;20.57;53.97;99896.25;2104384;28;3956;-32
2021/05/22 04:09:27;;;;;;;;;;;;;;;20.59;54.04;99903.22;2103901;28;3863;-26
2021/05/22 04:10:28;;;;;;;;;;;;;;;20.57;53.96;99901.94;2105473;28;3903;-26
2021/05/22 04:11:29;;;;;;;;;;;;;;;20.56;54.00;99901.09;2105007;28;4029;-27
2021/05/22 04:12:30;;;;;;;;;;;;;;;20.56;54.08;99895.41;2103993;28;4053;-30
2021/05/22 04:13:32;;;;;;;;;;;;;;;20.56;53.88;99900.28;2096167;28;4094;-29
2021/05/22 04:14:33;;;;;;;;;;;;;;;20.56;53.96;99903.09;2095457;28;4144;-26
2021/05/22 04:15:34;;;;;;;;;;;;;;;20.57;54.00;99901.94;2104751;28;3921;-27
2021/05/22 04:16:35;;;;;;;;;;;;;;;20.55;53.97;99898.63;2103718;28;3892;-27
2021/05/22 04:17:37;;;;;;;;;;;;;;;;;;2103750;28;4039;-26
2021/05/22 04:18:38;;;;;;;;;;;;;;;20.58;54.04;99906.41;2104887;28;4027;-27
2021/05/22 04:19:39;;;;;;;;;;;;;;;20.57;53.92;99913.31;2104670;28;4051;-26
2021/05/22 04:20:40;;;;;;;;;;;;;;;20.57;54.07;99907.63;2104777;28;4224;-31
2021/05/22 04:21:42;;;;;;;;;;;;;;;20.56;53.96;99903.94;2104912;28;4286;-27
2021/05/22 04:22:43;;;;;;;;;;;;;;;20.56;54.02;99903.94;2104351;28;4091;-29
2021/05/22 04:23:44;;;;;;;;;;;;;;;20.57;54.03;99913.31;2105098;28;3846;-27
2021/05/22 04:24:45;;;;;;;;;;;;;;;;;;2105149;28;4145;-26
2021/05/22 04:25:47;;;;;;;;;;;;;;;20.57;53.92;99913.31;2104075;28;4042;-29
2021/05/22 04:26:48;;;;;;;;;;;;;;;20.56;53.97;99912.44;2103294;28;3849;-31
2021/05/22 04:27:49;;;;;;;;;;;;;;;20.56;53.95;99903.09;2104401;28;4080;-32
2021/05/22 04:28:50;;;;;;;;;;;;;;;20.57;53.88;99907.63;2095021;28;3870;-31
2021/05/22 04:29:51;;;;;;;;;;;;;;;20.56;54.01;99908.78;2095631;28;3889;-32
2021/05/22 04:30:53;;;;;;;;;;;;;;;20.56;53.98;99903.09;2104178;28;4051;-33
2021/05/22 04:31:54;;;;;;;;;;;;;;;20.57;53.98;99904.78;2104202;28;4027;-27
2021/05/22 04:32:55;;;;;;;;;;;;;;;20.56;53.83;99905.94;2104492;28;4240;-29
2021/05/22 04:33:56;;;;;;;;;;;;;;;20.56;53.95;99908.78;2104959;28;3908;-27
2021/05/22 04:34:57;;;;;;;;;;;;;;;20.56;53.93;99903.09;2104902;28;4792;-33
2021/05/22 04:35:59;;;;;;;;;;;;;;;20.55;53.99;99904.31;2104319;28;3897;-28
2021/05/22 04:37:00;;;;;;;;;;;;;;;20.55;53.80;99902.28;2103919;28;3770;-32
2021/05/22 04:38:01;;;;;;;;;;;;;;;20.55;53.85;99899.44;2104291;28;4053;-29
2021/05/22 04:39:02;;;;;;;;;;;;;;;20.55;53.86;99901.47;2104312;28;4001;-28
2021/05/22 04:40:04;;;;;;;;;;;;;;;20.55;53.83;99898.63;2104131;28;4159;-29
2021/05/22 04:41:05;;;;;;;;;;;;;;;20.55;53.80;99898.63;2105013;28;4152;-28
2021/05/22 04:42:06;;;;;;;;;;;;;;;20.55;54.00;99904.31;2104142;28;4188;-37
2021/05/22 04:43:07;;;;;;;;;;;;;;;20.55;53.86;99902.28;2104180;28;3905;-31
2021/05/22 04:44:09;;;;;;;;;;;;;;;20.55;53.75;99907.16;2105406;28;4028;-29
2021/05/22 04:45:10;;;;;;;;;;;;;;;20.55;53.82;99910.81;2103695;28;4002;-28
2021/05/22 04:46:11;;;;;;;;;;;;;;;20.56;53.88;99905.94;2104920;28;4050;-28
2021/05/22 04:47:12;;;;;;;;;;;;;;;20.54;53.92;99902.66;2104090;28;3866;-29
2021/05/22 04:48:14;;;;;;;;;;;;;;;20.54;53.91;99902.66;2103716;28;3824;-30
2021/05/22 04:49:15;;;;;;;;;;;;;;;20.54;53.87;99896.97;2104881;28;3846;-36
2021/05/22 04:50:17;;;;;;;;;;;;;;;20.54;53.95;99903.50;2102994;28;4153;-30
2021/05/22 04:51:18;;;;;;;;;;;;;;;20.54;53.86;99897.81;2104500;28;4061;-29
2021/05/22 04:52:22;;;;;;;;;;;;;;;20.54;54.00;99900.66;2104869;28;3864;-32
2021/05/22 04:53:23;;;;;;;;;;;;;;;20.54;53.84;99902.66;2104101;28;3824;-29
2021/05/22 04:54:25;;;;;;;;;;;;;;;20.54;53.93;99899.81;2104379;28;3937;-28
2021/05/22 04:55:26;;;;;;;;;;;;;;;20.54;53.88;99900.66;2104350;28;4879;-31
2021/05/22 04:56:27;;;;;;;;;;;;;;;20.53;53.94;99901.84;2104979;28;4029;-29
2021/05/22 04:57:28;;;;;;;;;;;;;;;20.54;53.80;99902.66;2104668;28;4036;-30
2021/05/22 04:58:29;;;;;;;;;;;;;;;20.53;53.75;99901.84;2102990;28;3913;-29
2021/05/22 04:59:31;;;;;;;;;;;;;;;20.53;53.77;99898.16;2105028;28;3873;-30
2021/05/22 05:00:32;;;;;;;;;;;;;;;20.54;53.78;99905.50;2104033;28;4032;-29
2021/05/22 05:01:33;;;;;;;;;;;;;;;20.53;53.83;99903.81;2104185;28;4082;-29
2021/05/22 05:02:34;;;;;;;;;;;;;;;20.53;53.94;99899.00;2103633;28;4283;-28
2021/05/22 05:03:36;;;;;;;;;;;;;;;20.53;53.67;99903.81;2103745;28;4107;-29
2021/05/22 05:04:37;;;;;;;;;;;;;;;20.53;53.73;99900.97;2105130;28;4057;-28
2021/05/22 05:05:38;;;;;;;;;;;;;;;20.54;53.73;99899.81;2104578;28;4013;-28
2021/05/22 05:06:39;;;;;;;;;;;;;;;20.54;53.86;99899.81;2104723;28;4249;-28
2021/05/22 05:07:41;;;;;;;;;;;;;;;20.54;53.78;99896.97;2104244;28;4064;-32
2021/05/22 05:08:42;;;;;;;;;;;;;;;20.53;53.79;99904.69;2104195;28;3951;-32
2021/05/22 05:09:45;;;;;;;;;;;;;;;20.52;53.87;99903.00;2104517;28;4242;-28
2021/05/22 05:10:46;;;;;;;;;;;;;;;20.53;53.81;99913.19;2104091;28;4255;-28
2021/05/22 05:11:47;;;;;;;;;;;;;;;20.53;53.77;99909.50;2104111;28;4066;-30
2021/05/22 05:12:48;;;;;;;;;;;;;;;20.52;53.75;99914.38;2103634;28;3899;-29
2021/05/22 05:13:50;;;;;;;;;;;;;;;20.52;53.73;99922.91;2103233;28;3898;-28
2021/05/22 05:14:51;;;;;;;;;;;;;;;20.53;53.94;99923.72;2101280;28;4033;-28
2021/05/22 05:15:52;;;;;;;;;;;;;;;20.53;53.75;99918.03;2103608;28;3923;-28
2021/05/22 05:16:53;;;;;;;;;;;;;;;20.52;53.86;99922.91;2104026;28;3930;-27
2021/05/22 05:17:55;;;;;;;;;;;;;;;20.52;53.92;99917.22;2104114;28;4082;-28
2021/05/22 05:18:56;;;;;;;;;;;;;;;20.53;53.82;99920.88;2104240;28;4078;-29
2021/05/22 05:20:00;;;;;;;;;;;;;;;20.52;53.81;99916.41;2103923;28;4062;-28
2021/05/22 05:21:01;;;;;;;;;;;;;;;20.52;53.77;99922.91;2104438;28;3877;-29
2021/05/22 05:22:03;;;;;;;;;;;;;;;20.52;53.83;99917.22;2104783;28;4010;-32
2021/05/22 05:23:07;;;;;;;;;;;;;;;20.52;53.86;99922.09;2104525;28;3877;-28
2021/05/22 05:24:08;;;;;;;;;;;;;;;20.52;53.94;99924.94;2104845;28;4235;-28
2021/05/22 05:25:10;;;;;;;;;;;;;;;20.51;53.86;99918.44;2103115;28;4313;-33